CEB599 RPLL-RPMD
Flight info
| Callsign | CEB599 |
|---|---|
| Flight time | 1h 25m |
| Altitude | 35000 |
| Route | RPLL/06 IPATA2R IPATA B462 MASBA W9A BN W9 RIMAR RIMAR2R RPMD/05 |
| Aircraft | A21N/M-SDE3FGHIRWY/LB1 |
Departure
| Time | 2026-05-05 06:32 |
|---|---|
| Airport | Ninoy Aquino International Airport (RPLL) |
Arrival
| Time | 2026-05-05 07:58 |
|---|---|
| Airport | Francisco Bangoy International Airport (RPMD) |
| Time | Latitude | Longitude | Altitude | Speed | Heading |
|---|---|---|---|---|---|
| 2026-05-05 05:57 | 14.52362 | 121.00758 | 84 ft | 0 kts | 45° |
| 2026-05-05 06:16 | 14.52360 | 121.00756 | 84 ft | 2 kts | 43° |
| 2026-05-05 06:16 | 14.52347 | 121.00748 | 84 ft | 2 kts | 18° |
| 2026-05-05 06:17 | 14.52332 | 121.00745 | 84 ft | 2 kts | 1° |
| 2026-05-05 06:17 | 14.52317 | 121.00745 | 84 ft | 2 kts | 25° |
| 2026-05-05 06:17 | 14.52306 | 121.00734 | 84 ft | 2 kts | 65° |
| 2026-05-05 06:17 | 14.52304 | 121.00718 | 84 ft | 2 kts | 105° |
| 2026-05-05 06:18 | 14.52310 | 121.00706 | 84 ft | 0 kts | 140° |
| 2026-05-05 06:18 | 14.52312 | 121.00704 | 84 ft | 0 kts | 141° |
| 2026-05-05 06:20 | 14.52312 | 121.00705 | 84 ft | 0 kts | 134° |
| 2026-05-05 06:20 | 14.52310 | 121.00707 | 84 ft | 1 kts | 134° |
| 2026-05-05 06:20 | 14.52296 | 121.00721 | 84 ft | 3 kts | 135° |
| 2026-05-05 06:21 | 14.52277 | 121.00742 | 84 ft | 4 kts | 135° |
| 2026-05-05 06:21 | 14.52256 | 121.00763 | 84 ft | 3 kts | 135° |
| 2026-05-05 06:21 | 14.52230 | 121.00774 | 84 ft | 5 kts | 175° |
| 2026-05-05 06:21 | 14.52191 | 121.00759 | 84 ft | 7 kts | 202° |
| 2026-05-05 06:22 | 14.52141 | 121.00776 | 84 ft | 9 kts | 136° |
| 2026-05-05 06:22 | 14.52091 | 121.00829 | 84 ft | 11 kts | 135° |
| 2026-05-05 06:22 | 14.52032 | 121.00890 | 84 ft | 12 kts | 134° |
| 2026-05-05 06:22 | 14.51966 | 121.00958 | 84 ft | 13 kts | 135° |
| 2026-05-05 06:23 | 14.51898 | 121.01028 | 84 ft | 13 kts | 135° |
| 2026-05-05 06:23 | 14.51832 | 121.01096 | 84 ft | 13 kts | 135° |
| 2026-05-05 06:23 | 14.51769 | 121.01161 | 84 ft | 12 kts | 135° |
| 2026-05-05 06:23 | 14.51707 | 121.01226 | 84 ft | 12 kts | 135° |
| 2026-05-05 06:24 | 14.51645 | 121.01289 | 84 ft | 12 kts | 134° |
| 2026-05-05 06:24 | 14.51586 | 121.01351 | 84 ft | 12 kts | 135° |
| 2026-05-05 06:24 | 14.51526 | 121.01413 | 84 ft | 12 kts | 134° |
| 2026-05-05 06:24 | 14.51453 | 121.01489 | 84 ft | 16 kts | 135° |
| 2026-05-05 06:25 | 14.51371 | 121.01573 | 84 ft | 16 kts | 135° |
| 2026-05-05 06:25 | 14.51293 | 121.01653 | 84 ft | 15 kts | 135° |
| 2026-05-05 06:25 | 14.51219 | 121.01730 | 84 ft | 14 kts | 135° |
| 2026-05-05 06:25 | 14.51148 | 121.01804 | 84 ft | 14 kts | 135° |
| 2026-05-05 06:26 | 14.51080 | 121.01874 | 84 ft | 12 kts | 134° |
| 2026-05-05 06:26 | 14.51029 | 121.01914 | 84 ft | 8 kts | 171° |
| 2026-05-05 06:26 | 14.50984 | 121.01884 | 84 ft | 8 kts | 235° |
| 2026-05-05 06:26 | 14.50953 | 121.01829 | 84 ft | 10 kts | 240° |
| 2026-05-05 06:27 | 14.50911 | 121.01755 | 84 ft | 13 kts | 240° |
| 2026-05-05 06:27 | 14.50798 | 121.01550 | 84 ft | 17 kts | 240° |
| 2026-05-05 06:27 | 14.50739 | 121.01444 | 84 ft | 16 kts | 240° |
| 2026-05-05 06:28 | 14.50682 | 121.01341 | 84 ft | 16 kts | 240° |
| 2026-05-05 06:28 | 14.50626 | 121.01242 | 84 ft | 15 kts | 240° |
| 2026-05-05 06:28 | 14.50572 | 121.01144 | 84 ft | 15 kts | 240° |
| 2026-05-05 06:28 | 14.50519 | 121.01049 | 84 ft | 15 kts | 240° |
| 2026-05-05 06:29 | 14.50467 | 121.00956 | 84 ft | 14 kts | 240° |
| 2026-05-05 06:29 | 14.50416 | 121.00864 | 84 ft | 14 kts | 240° |
| 2026-05-05 06:29 | 14.50366 | 121.00774 | 84 ft | 14 kts | 240° |
| 2026-05-05 06:29 | 14.50318 | 121.00686 | 84 ft | 14 kts | 240° |
| 2026-05-05 06:30 | 14.50269 | 121.00599 | 84 ft | 13 kts | 240° |
| 2026-05-05 06:30 | 14.50221 | 121.00513 | 84 ft | 13 kts | 240° |
| 2026-05-05 06:30 | 14.50175 | 121.00429 | 84 ft | 11 kts | 240° |
| 2026-05-05 06:30 | 14.50143 | 121.00375 | 84 ft | 6 kts | 231° |
| 2026-05-05 06:31 | 14.50104 | 121.00366 | 84 ft | 6 kts | 162° |
| 2026-05-05 06:31 | 14.50063 | 121.00387 | 84 ft | 6 kts | 150° |
| 2026-05-05 06:31 | 14.50028 | 121.00417 | 84 ft | 6 kts | 118° |
| 2026-05-05 06:31 | 14.50033 | 121.00462 | 84 ft | 6 kts | 61° |
| 2026-05-05 06:32 | 14.50117 | 121.00613 | 84 ft | 57 kts | 59° |
| 2026-05-05 06:32 | 14.50441 | 121.01198 | 84 ft | 125 kts | 59° |
| 2026-05-05 06:32 | 14.50979 | 121.02163 | 136 ft | 174 kts | 61° |
| 2026-05-05 06:32 | 14.51572 | 121.03228 | 797 ft | 173 kts | 61° |
| 2026-05-05 06:33 | 14.52175 | 121.04306 | 1456 ft | 176 kts | 62° |
| 2026-05-05 06:33 | 14.52773 | 121.05387 | 2049 ft | 175 kts | 61° |
| 2026-05-05 06:33 | 14.53401 | 121.06516 | 2284 ft | 186 kts | 62° |
| 2026-05-05 06:33 | 14.54066 | 121.07719 | 2524 ft | 198 kts | 61° |
| 2026-05-05 06:34 | 14.54779 | 121.08997 | 2766 ft | 210 kts | 61° |
| 2026-05-05 06:34 | 14.55526 | 121.10343 | 2979 ft | 224 kts | 60° |
| 2026-05-05 06:34 | 14.56158 | 121.11873 | 3183 ft | 241 kts | 82° |
| 2026-05-05 06:34 | 14.55857 | 121.13629 | 3434 ft | 260 kts | 119° |
| 2026-05-05 06:35 | 14.54634 | 121.15057 | 3848 ft | 271 kts | 136° |
| 2026-05-05 06:35 | 14.53178 | 121.16343 | 4367 ft | 276 kts | 137° |
| 2026-05-05 06:35 | 14.51711 | 121.17637 | 4931 ft | 279 kts | 136° |
| 2026-05-05 06:35 | 14.50258 | 121.18964 | 5526 ft | 280 kts | 135° |
| 2026-05-05 06:36 | 14.48818 | 121.20319 | 6031 ft | 285 kts | 135° |
| 2026-05-05 06:36 | 14.47358 | 121.21724 | 6561 ft | 289 kts | 134° |
| 2026-05-05 06:36 | 14.45878 | 121.23163 | 7095 ft | 292 kts | 134° |
| 2026-05-05 06:36 | 14.44413 | 121.24602 | 7612 ft | 296 kts | 134° |
| 2026-05-05 06:37 | 14.42897 | 121.26095 | 8083 ft | 302 kts | 135° |
| 2026-05-05 06:37 | 14.41370 | 121.27595 | 8608 ft | 305 kts | 135° |
| 2026-05-05 06:37 | 14.39833 | 121.29105 | 9134 ft | 307 kts | 135° |
| 2026-05-05 06:37 | 14.38280 | 121.30635 | 9651 ft | 310 kts | 135° |
| 2026-05-05 06:38 | 14.36717 | 121.32175 | 10138 ft | 314 kts | 136° |
| 2026-05-05 06:38 | 14.35103 | 121.33765 | 10439 ft | 325 kts | 136° |
| 2026-05-05 06:38 | 14.33437 | 121.35403 | 10669 ft | 337 kts | 136° |
| 2026-05-05 06:38 | 14.31708 | 121.37100 | 10897 ft | 349 kts | 136° |
| 2026-05-05 06:39 | 14.29936 | 121.38840 | 11242 ft | 356 kts | 136° |
| 2026-05-05 06:39 | 14.28117 | 121.40631 | 11744 ft | 359 kts | 137° |
| 2026-05-05 06:39 | 14.26294 | 121.42425 | 12258 ft | 361 kts | 137° |
| 2026-05-05 06:39 | 14.24478 | 121.44208 | 12751 ft | 363 kts | 137° |
| 2026-05-05 06:40 | 14.22661 | 121.45991 | 13241 ft | 364 kts | 137° |
| 2026-05-05 06:40 | 14.20815 | 121.47803 | 13734 ft | 366 kts | 137° |
| 2026-05-05 06:40 | 14.18958 | 121.49625 | 14221 ft | 368 kts | 137° |
| 2026-05-05 06:40 | 14.17104 | 121.51445 | 14699 ft | 370 kts | 138° |
| 2026-05-05 06:41 | 14.15214 | 121.53300 | 15179 ft | 371 kts | 138° |
| 2026-05-05 06:41 | 14.13339 | 121.55138 | 15644 ft | 373 kts | 138° |
| 2026-05-05 06:41 | 14.11454 | 121.56988 | 16104 ft | 374 kts | 138° |
| 2026-05-05 06:41 | 14.09565 | 121.58840 | 16558 ft | 376 kts | 138° |
| 2026-05-05 06:42 | 14.07652 | 121.60716 | 17009 ft | 377 kts | 138° |
| 2026-05-05 06:42 | 14.05750 | 121.62580 | 17448 ft | 379 kts | 138° |
| 2026-05-05 06:42 | 14.03832 | 121.64459 | 17882 ft | 381 kts | 138° |
| 2026-05-05 06:42 | 14.01858 | 121.66393 | 18317 ft | 382 kts | 139° |
| 2026-05-05 06:43 | 13.99926 | 121.68285 | 18734 ft | 383 kts | 139° |
| 2026-05-05 06:43 | 13.97967 | 121.70203 | 19145 ft | 385 kts | 139° |
| 2026-05-05 06:43 | 13.96023 | 121.72107 | 19548 ft | 386 kts | 139° |
| 2026-05-05 06:43 | 13.94073 | 121.74015 | 19927 ft | 388 kts | 139° |
| 2026-05-05 06:44 | 13.92111 | 121.75934 | 20297 ft | 390 kts | 139° |
| 2026-05-05 06:44 | 13.90136 | 121.77866 | 20680 ft | 392 kts | 139° |
| 2026-05-05 06:44 | 13.88139 | 121.79822 | 21066 ft | 393 kts | 138° |
| 2026-05-05 06:44 | 13.86221 | 121.81847 | 21440 ft | 396 kts | 134° |
| 2026-05-05 06:45 | 13.84432 | 121.83971 | 21807 ft | 398 kts | 132° |
| 2026-05-05 06:45 | 13.82637 | 121.86176 | 22181 ft | 399 kts | 131° |
| 2026-05-05 06:45 | 13.80863 | 121.88362 | 22539 ft | 401 kts | 131° |
| 2026-05-05 06:45 | 13.79083 | 121.90552 | 22892 ft | 402 kts | 131° |
| 2026-05-05 06:46 | 13.77272 | 121.92778 | 23242 ft | 404 kts | 131° |
| 2026-05-05 06:46 | 13.75465 | 121.94996 | 23583 ft | 405 kts | 131° |
| 2026-05-05 06:46 | 13.73662 | 121.97208 | 23914 ft | 406 kts | 131° |
| 2026-05-05 06:46 | 13.71814 | 121.99470 | 24243 ft | 408 kts | 131° |
| 2026-05-05 06:47 | 13.69984 | 122.01711 | 24560 ft | 409 kts | 131° |
| 2026-05-05 06:47 | 13.68149 | 122.03959 | 24864 ft | 411 kts | 131° |
| 2026-05-05 06:47 | 13.66305 | 122.06215 | 25135 ft | 413 kts | 131° |
| 2026-05-05 06:47 | 13.64472 | 122.08457 | 25417 ft | 415 kts | 131° |
| 2026-05-05 06:48 | 13.62602 | 122.10744 | 25709 ft | 416 kts | 131° |
| 2026-05-05 06:48 | 13.60726 | 122.13037 | 25991 ft | 417 kts | 131° |
| 2026-05-05 06:48 | 13.58854 | 122.15325 | 26265 ft | 419 kts | 131° |
| 2026-05-05 06:48 | 13.56979 | 122.17617 | 26530 ft | 420 kts | 131° |
| 2026-05-05 06:49 | 13.55101 | 122.19911 | 26789 ft | 421 kts | 131° |
| 2026-05-05 06:49 | 13.53194 | 122.22240 | 27043 ft | 423 kts | 131° |
| 2026-05-05 06:49 | 13.51310 | 122.24540 | 27290 ft | 424 kts | 131° |
| 2026-05-05 06:49 | 13.49399 | 122.26873 | 27536 ft | 425 kts | 131° |
| 2026-05-05 06:50 | 13.47502 | 122.29187 | 27777 ft | 426 kts | 131° |
| 2026-05-05 06:50 | 13.45602 | 122.31506 | 28016 ft | 428 kts | 131° |
| 2026-05-05 06:50 | 13.43676 | 122.33855 | 28251 ft | 429 kts | 131° |
| 2026-05-05 06:50 | 13.41769 | 122.36180 | 28480 ft | 430 kts | 131° |
| 2026-05-05 06:51 | 13.39827 | 122.38547 | 28711 ft | 431 kts | 131° |
| 2026-05-05 06:51 | 13.37900 | 122.40896 | 28935 ft | 433 kts | 131° |
| 2026-05-05 06:51 | 13.35965 | 122.43253 | 29157 ft | 434 kts | 131° |
| 2026-05-05 06:51 | 13.34023 | 122.45619 | 29376 ft | 435 kts | 131° |
| 2026-05-05 06:52 | 13.32080 | 122.47984 | 29590 ft | 436 kts | 131° |
| 2026-05-05 06:52 | 13.30134 | 122.50353 | 29799 ft | 437 kts | 131° |
| 2026-05-05 06:52 | 13.28162 | 122.52753 | 30003 ft | 438 kts | 131° |
| 2026-05-05 06:52 | 13.26198 | 122.55141 | 30203 ft | 440 kts | 131° |
| 2026-05-05 06:53 | 13.24247 | 122.57516 | 30401 ft | 441 kts | 131° |
| 2026-05-05 06:53 | 13.22256 | 122.59936 | 30637 ft | 441 kts | 131° |
| 2026-05-05 06:53 | 13.20281 | 122.62337 | 30910 ft | 440 kts | 130° |
| 2026-05-05 06:53 | 13.18315 | 122.64726 | 31177 ft | 439 kts | 130° |
| 2026-05-05 06:54 | 13.16364 | 122.67096 | 31432 ft | 438 kts | 131° |
| 2026-05-05 06:54 | 13.14400 | 122.69482 | 31690 ft | 438 kts | 131° |
| 2026-05-05 06:54 | 13.12443 | 122.71858 | 31939 ft | 437 kts | 131° |
| 2026-05-05 06:54 | 13.10473 | 122.74248 | 32185 ft | 436 kts | 131° |
| 2026-05-05 06:55 | 13.08535 | 122.76601 | 32404 ft | 436 kts | 131° |
| 2026-05-05 06:55 | 13.06569 | 122.78986 | 32601 ft | 437 kts | 131° |
| 2026-05-05 06:55 | 13.04622 | 122.81349 | 32786 ft | 438 kts | 131° |
| 2026-05-05 06:55 | 13.02654 | 122.83736 | 32972 ft | 438 kts | 131° |
| 2026-05-05 06:56 | 13.00680 | 122.86128 | 33146 ft | 439 kts | 131° |
| 2026-05-05 06:56 | 12.98716 | 122.88508 | 33294 ft | 440 kts | 131° |
| 2026-05-05 06:56 | 12.96738 | 122.90904 | 33431 ft | 442 kts | 131° |
| 2026-05-05 06:56 | 12.94747 | 122.93314 | 33572 ft | 443 kts | 131° |
| 2026-05-05 06:57 | 12.92760 | 122.95719 | 33727 ft | 444 kts | 131° |
| 2026-05-05 06:57 | 12.90772 | 122.98126 | 33895 ft | 445 kts | 131° |
| 2026-05-05 06:57 | 12.88736 | 123.00590 | 34065 ft | 445 kts | 131° |
| 2026-05-05 06:57 | 12.86719 | 123.03030 | 34225 ft | 446 kts | 130° |
| 2026-05-05 06:58 | 12.84719 | 123.05450 | 34378 ft | 447 kts | 130° |
| 2026-05-05 06:58 | 12.82747 | 123.07835 | 34530 ft | 447 kts | 130° |
| 2026-05-05 06:58 | 12.80700 | 123.10309 | 34685 ft | 448 kts | 130° |
| 2026-05-05 06:58 | 12.78823 | 123.12577 | 34821 ft | 448 kts | 130° |
| 2026-05-05 06:59 | 12.76794 | 123.15028 | 34888 ft | 449 kts | 130° |
| 2026-05-05 06:59 | 12.72698 | 123.19976 | 34893 ft | 450 kts | 130° |
| 2026-05-05 07:00 | 12.68619 | 123.24900 | 34895 ft | 450 kts | 130° |
| 2026-05-05 07:00 | 12.64597 | 123.29753 | 34895 ft | 450 kts | 130° |
| 2026-05-05 07:01 | 12.60522 | 123.34666 | 34895 ft | 450 kts | 130° |
| 2026-05-05 07:01 | 12.56481 | 123.39535 | 34895 ft | 450 kts | 130° |
| 2026-05-05 07:02 | 12.52424 | 123.44421 | 34895 ft | 450 kts | 130° |
| 2026-05-05 07:02 | 12.48361 | 123.49309 | 34895 ft | 450 kts | 130° |
| 2026-05-05 07:03 | 12.44303 | 123.54189 | 34895 ft | 450 kts | 130° |
| 2026-05-05 07:03 | 12.40089 | 123.58922 | 34895 ft | 450 kts | 136° |
| 2026-05-05 07:04 | 12.35379 | 123.63129 | 34895 ft | 450 kts | 142° |
| 2026-05-05 07:04 | 12.30227 | 123.66722 | 34895 ft | 450 kts | 150° |
| 2026-05-05 07:05 | 12.24731 | 123.69818 | 34895 ft | 450 kts | 152° |
| 2026-05-05 07:05 | 12.19212 | 123.72847 | 34894 ft | 450 kts | 152° |
| 2026-05-05 07:06 | 12.13714 | 123.75872 | 34876 ft | 449 kts | 152° |
| 2026-05-05 07:06 | 12.08213 | 123.78902 | 34848 ft | 450 kts | 152° |
| 2026-05-05 07:07 | 12.02700 | 123.81940 | 34836 ft | 450 kts | 152° |
| 2026-05-05 07:07 | 11.97166 | 123.84987 | 34832 ft | 450 kts | 152° |
| 2026-05-05 07:08 | 11.91681 | 123.88007 | 34831 ft | 450 kts | 152° |
| 2026-05-05 07:08 | 11.86023 | 123.91120 | 34831 ft | 450 kts | 152° |
| 2026-05-05 07:09 | 11.80330 | 123.94250 | 34831 ft | 451 kts | 152° |
| 2026-05-05 07:09 | 11.74806 | 123.97288 | 34831 ft | 451 kts | 152° |
| 2026-05-05 07:10 | 11.69128 | 124.00407 | 34831 ft | 451 kts | 152° |
| 2026-05-05 07:10 | 11.63499 | 124.03498 | 34831 ft | 451 kts | 152° |
| 2026-05-05 07:11 | 11.58009 | 124.06512 | 34831 ft | 451 kts | 152° |
| 2026-05-05 07:11 | 11.52462 | 124.09556 | 34831 ft | 451 kts | 152° |
| 2026-05-05 07:12 | 11.46941 | 124.12583 | 34831 ft | 451 kts | 152° |
| 2026-05-05 07:12 | 11.41419 | 124.15610 | 34831 ft | 451 kts | 152° |
| 2026-05-05 07:13 | 11.35923 | 124.18622 | 34831 ft | 451 kts | 152° |
| 2026-05-05 07:13 | 11.30371 | 124.21662 | 34831 ft | 451 kts | 152° |
| 2026-05-05 07:14 | 11.24852 | 124.24684 | 34831 ft | 451 kts | 152° |
| 2026-05-05 07:14 | 11.19311 | 124.27715 | 34831 ft | 451 kts | 152° |
| 2026-05-05 07:15 | 11.13809 | 124.30723 | 34831 ft | 451 kts | 152° |
| 2026-05-05 07:15 | 11.08264 | 124.33753 | 34831 ft | 451 kts | 152° |
| 2026-05-05 07:16 | 11.02718 | 124.36759 | 34831 ft | 451 kts | 152° |
| 2026-05-05 07:16 | 10.97167 | 124.39747 | 34831 ft | 451 kts | 152° |
| 2026-05-05 07:17 | 10.91647 | 124.42718 | 34831 ft | 451 kts | 152° |
| 2026-05-05 07:17 | 10.86016 | 124.45747 | 34831 ft | 451 kts | 152° |
| 2026-05-05 07:18 | 10.80295 | 124.48821 | 34829 ft | 451 kts | 152° |
| 2026-05-05 07:18 | 10.74727 | 124.51826 | 34824 ft | 451 kts | 152° |
| 2026-05-05 07:19 | 10.69216 | 124.54825 | 34821 ft | 451 kts | 152° |
| 2026-05-05 07:19 | 10.63672 | 124.57840 | 34821 ft | 451 kts | 152° |
| 2026-05-05 07:20 | 10.58162 | 124.60832 | 34820 ft | 451 kts | 152° |
| 2026-05-05 07:20 | 10.52611 | 124.63844 | 34820 ft | 451 kts | 152° |
| 2026-05-05 07:21 | 10.46987 | 124.66894 | 34826 ft | 452 kts | 152° |
| 2026-05-05 07:21 | 10.41528 | 124.69853 | 34834 ft | 451 kts | 152° |
| 2026-05-05 07:22 | 10.35965 | 124.72868 | 34839 ft | 451 kts | 152° |
| 2026-05-05 07:22 | 10.30442 | 124.75859 | 34839 ft | 451 kts | 152° |
| 2026-05-05 07:23 | 10.24887 | 124.78867 | 34840 ft | 451 kts | 152° |
| 2026-05-05 07:23 | 10.19340 | 124.81869 | 34839 ft | 451 kts | 152° |
| 2026-05-05 07:24 | 10.13799 | 124.84866 | 34841 ft | 450 kts | 152° |
| 2026-05-05 07:24 | 10.08270 | 124.87856 | 34840 ft | 450 kts | 152° |
| 2026-05-05 07:25 | 10.02768 | 124.90829 | 34840 ft | 449 kts | 152° |
| 2026-05-05 07:25 | 9.97236 | 124.93818 | 34840 ft | 448 kts | 152° |
| 2026-05-05 07:26 | 9.91722 | 124.96795 | 34840 ft | 447 kts | 152° |
| 2026-05-05 07:26 | 9.86155 | 124.99799 | 34840 ft | 447 kts | 152° |
| 2026-05-05 07:27 | 9.80652 | 125.02768 | 34840 ft | 446 kts | 152° |
| 2026-05-05 07:27 | 9.75026 | 125.05803 | 34840 ft | 445 kts | 152° |
| 2026-05-05 07:28 | 9.69519 | 125.08769 | 34840 ft | 446 kts | 152° |
| 2026-05-05 07:28 | 9.64056 | 125.11710 | 34840 ft | 446 kts | 152° |
| 2026-05-05 07:29 | 9.58570 | 125.14659 | 34840 ft | 445 kts | 153° |
| 2026-05-05 07:29 | 9.53089 | 125.17585 | 34840 ft | 445 kts | 153° |
| 2026-05-05 07:30 | 9.47608 | 125.20506 | 34840 ft | 445 kts | 153° |
| 2026-05-05 07:30 | 9.39378 | 125.24892 | 34840 ft | 445 kts | 153° |
| 2026-05-05 07:31 | 9.33908 | 125.27805 | 34840 ft | 445 kts | 153° |
| 2026-05-05 07:31 | 9.28400 | 125.30738 | 34840 ft | 446 kts | 153° |
| 2026-05-05 07:32 | 9.22910 | 125.33659 | 34840 ft | 445 kts | 153° |
| 2026-05-05 07:32 | 9.17423 | 125.36578 | 34840 ft | 445 kts | 153° |
| 2026-05-05 07:33 | 9.11943 | 125.39492 | 34840 ft | 445 kts | 153° |
| 2026-05-05 07:33 | 9.06479 | 125.42394 | 34839 ft | 445 kts | 152° |
| 2026-05-05 07:34 | 9.00887 | 125.45235 | 34833 ft | 446 kts | 156° |
| 2026-05-05 07:34 | 8.95076 | 125.47432 | 34825 ft | 448 kts | 162° |
| 2026-05-05 07:35 | 8.89035 | 125.48895 | 34818 ft | 449 kts | 169° |
| 2026-05-05 07:35 | 8.83046 | 125.49648 | 34815 ft | 449 kts | 174° |
| 2026-05-05 07:36 | 8.76800 | 125.50268 | 34814 ft | 449 kts | 174° |
| 2026-05-05 07:36 | 8.70576 | 125.50891 | 34813 ft | 449 kts | 173° |
| 2026-05-05 07:37 | 8.64361 | 125.51520 | 34813 ft | 449 kts | 173° |
| 2026-05-05 07:37 | 8.58178 | 125.52146 | 34813 ft | 449 kts | 173° |
| 2026-05-05 07:38 | 8.51938 | 125.52777 | 34813 ft | 449 kts | 174° |
| 2026-05-05 07:38 | 8.45746 | 125.53342 | 34813 ft | 449 kts | 174° |
| 2026-05-05 07:39 | 8.42610 | 125.53620 | 34679 ft | 449 kts | 174° |
| 2026-05-05 07:39 | 8.39502 | 125.53896 | 34033 ft | 452 kts | 174° |
| 2026-05-05 07:39 | 8.36365 | 125.54176 | 33078 ft | 459 kts | 174° |
| 2026-05-05 07:39 | 8.33170 | 125.54462 | 32108 ft | 464 kts | 174° |
| 2026-05-05 07:40 | 8.29966 | 125.54749 | 31223 ft | 467 kts | 174° |
| 2026-05-05 07:40 | 8.26758 | 125.55037 | 30371 ft | 468 kts | 174° |
| 2026-05-05 07:40 | 8.23480 | 125.55331 | 29490 ft | 469 kts | 174° |
| 2026-05-05 07:40 | 8.20256 | 125.55619 | 28593 ft | 471 kts | 174° |
| 2026-05-05 07:41 | 8.16999 | 125.55911 | 27662 ft | 473 kts | 175° |
| 2026-05-05 07:41 | 8.13697 | 125.56207 | 26691 ft | 475 kts | 175° |
| 2026-05-05 07:41 | 8.10427 | 125.56499 | 25692 ft | 477 kts | 175° |
| 2026-05-05 07:41 | 8.07097 | 125.56796 | 24640 ft | 480 kts | 175° |
| 2026-05-05 07:42 | 8.03748 | 125.57095 | 23635 ft | 480 kts | 175° |
| 2026-05-05 07:42 | 8.00451 | 125.57390 | 22976 ft | 473 kts | 176° |
| 2026-05-05 07:42 | 7.97229 | 125.57422 | 22325 ft | 466 kts | 185° |
| 2026-05-05 07:42 | 7.94088 | 125.56911 | 21672 ft | 450 kts | 194° |
| 2026-05-05 07:43 | 7.91109 | 125.56091 | 20921 ft | 439 kts | 197° |
| 2026-05-05 07:43 | 7.88195 | 125.55222 | 20161 ft | 428 kts | 197° |
| 2026-05-05 07:43 | 7.85278 | 125.54343 | 19381 ft | 419 kts | 197° |
| 2026-05-05 07:43 | 7.82708 | 125.53573 | 18681 ft | 411 kts | 197° |
| 2026-05-05 07:44 | 7.80071 | 125.52788 | 17947 ft | 404 kts | 197° |
| 2026-05-05 07:44 | 7.77404 | 125.52000 | 17195 ft | 397 kts | 197° |
| 2026-05-05 07:44 | 7.74783 | 125.51228 | 16443 ft | 391 kts | 198° |
| 2026-05-05 07:44 | 7.72225 | 125.50476 | 15697 ft | 386 kts | 198° |
| 2026-05-05 07:45 | 7.69674 | 125.49727 | 14944 ft | 381 kts | 198° |
| 2026-05-05 07:45 | 7.67167 | 125.48991 | 14195 ft | 376 kts | 198° |
| 2026-05-05 07:45 | 7.64672 | 125.48257 | 13440 ft | 372 kts | 198° |
| 2026-05-05 07:45 | 7.62207 | 125.47536 | 12710 ft | 367 kts | 198° |
| 2026-05-05 07:46 | 7.59816 | 125.46837 | 12313 ft | 353 kts | 198° |
| 2026-05-05 07:46 | 7.57485 | 125.46156 | 11912 ft | 341 kts | 198° |
| 2026-05-05 07:46 | 7.55239 | 125.45498 | 11493 ft | 331 kts | 198° |
| 2026-05-05 07:46 | 7.53071 | 125.44862 | 11071 ft | 322 kts | 198° |
| 2026-05-05 07:47 | 7.50963 | 125.44244 | 10656 ft | 315 kts | 198° |
| 2026-05-05 07:47 | 7.48879 | 125.43632 | 10409 ft | 306 kts | 198° |
| 2026-05-05 07:47 | 7.46876 | 125.43046 | 10296 ft | 297 kts | 198° |
| 2026-05-05 07:47 | 7.44905 | 125.42468 | 10170 ft | 290 kts | 198° |
| 2026-05-05 07:48 | 7.43011 | 125.41914 | 10050 ft | 285 kts | 198° |
| 2026-05-05 07:48 | 7.41096 | 125.41351 | 9753 ft | 286 kts | 198° |
| 2026-05-05 07:48 | 7.39186 | 125.40791 | 9383 ft | 286 kts | 198° |
| 2026-05-05 07:48 | 7.37304 | 125.40239 | 9031 ft | 285 kts | 198° |
| 2026-05-05 07:49 | 7.35398 | 125.39709 | 8676 ft | 285 kts | 192° |
| 2026-05-05 07:49 | 7.33417 | 125.39551 | 8319 ft | 286 kts | 177° |
| 2026-05-05 07:49 | 7.31459 | 125.39837 | 7980 ft | 285 kts | 169° |
| 2026-05-05 07:49 | 7.29520 | 125.40263 | 7641 ft | 284 kts | 167° |
| 2026-05-05 07:50 | 7.27616 | 125.40698 | 7309 ft | 283 kts | 167° |
| 2026-05-05 07:50 | 7.25696 | 125.41125 | 6976 ft | 282 kts | 167° |
| 2026-05-05 07:50 | 7.23765 | 125.41544 | 6641 ft | 280 kts | 167° |
| 2026-05-05 07:50 | 7.21879 | 125.41948 | 6316 ft | 279 kts | 167° |
| 2026-05-05 07:51 | 7.19994 | 125.42348 | 5991 ft | 277 kts | 167° |
| 2026-05-05 07:51 | 7.18106 | 125.42747 | 5666 ft | 276 kts | 167° |
| 2026-05-05 07:51 | 7.16249 | 125.43137 | 5346 ft | 274 kts | 167° |
| 2026-05-05 07:51 | 7.14376 | 125.43533 | 5025 ft | 272 kts | 167° |
| 2026-05-05 07:52 | 7.12545 | 125.43918 | 4711 ft | 271 kts | 167° |
| 2026-05-05 07:52 | 7.10700 | 125.44308 | 4393 ft | 269 kts | 167° |
| 2026-05-05 07:52 | 7.08873 | 125.44693 | 4079 ft | 268 kts | 167° |
| 2026-05-05 07:52 | 7.07111 | 125.45195 | 3943 ft | 257 kts | 153° |
| 2026-05-05 07:53 | 7.05595 | 125.46141 | 3857 ft | 253 kts | 139° |
| 2026-05-05 07:53 | 7.04278 | 125.47257 | 3722 ft | 243 kts | 137° |
| 2026-05-05 07:53 | 7.03036 | 125.48357 | 3586 ft | 234 kts | 136° |
| 2026-05-05 07:53 | 7.01840 | 125.49425 | 3513 ft | 223 kts | 133° |
| 2026-05-05 07:54 | 7.01121 | 125.50716 | 3257 ft | 206 kts | 95° |
| 2026-05-05 07:54 | 7.01457 | 125.52012 | 3033 ft | 188 kts | 52° |
| 2026-05-05 07:54 | 7.02311 | 125.52924 | 2896 ft | 167 kts | 45° |
| 2026-05-05 07:54 | 7.03107 | 125.53738 | 2675 ft | 162 kts | 46° |
| 2026-05-05 07:55 | 7.03843 | 125.54527 | 2404 ft | 152 kts | 47° |
| 2026-05-05 07:55 | 7.04557 | 125.55318 | 2201 ft | 151 kts | 48° |
| 2026-05-05 07:55 | 7.05250 | 125.56104 | 2002 ft | 151 kts | 49° |
| 2026-05-05 07:55 | 7.05944 | 125.56902 | 1802 ft | 150 kts | 49° |
| 2026-05-05 07:56 | 7.06630 | 125.57693 | 1603 ft | 150 kts | 49° |
| 2026-05-05 07:56 | 7.07307 | 125.58475 | 1406 ft | 149 kts | 49° |
| 2026-05-05 07:56 | 7.07992 | 125.59269 | 1206 ft | 149 kts | 49° |
| 2026-05-05 07:56 | 7.08668 | 125.60051 | 1011 ft | 148 kts | 49° |
| 2026-05-05 07:57 | 7.09349 | 125.60841 | 807 ft | 148 kts | 50° |
| 2026-05-05 07:57 | 7.10012 | 125.61620 | 605 ft | 148 kts | 50° |
| 2026-05-05 07:57 | 7.10685 | 125.62399 | 413 ft | 147 kts | 49° |
| 2026-05-05 07:57 | 7.11356 | 125.63179 | 238 ft | 146 kts | 50° |
| 2026-05-05 07:58 | 7.12012 | 125.63946 | 109 ft | 137 kts | 50° |
| 2026-05-05 07:58 | 7.12546 | 125.64571 | 104 ft | 94 kts | 49° |
| 2026-05-05 07:58 | 7.12864 | 125.64940 | 104 ft | 45 kts | 49° |
| 2026-05-05 07:58 | 7.13004 | 125.65103 | 104 ft | 24 kts | 49° |
| 2026-05-05 07:59 | 7.13086 | 125.65198 | 104 ft | 8 kts | 49° |
| 2026-05-05 07:59 | 7.13116 | 125.65221 | 104 ft | 4 kts | 23° |
| 2026-05-05 07:59 | 7.13138 | 125.65235 | 104 ft | 3 kts | 61° |
| 2026-05-05 07:59 | 7.13131 | 125.65254 | 104 ft | 3 kts | 151° |
| 2026-05-05 08:00 | 7.13112 | 125.65245 | 104 ft | 3 kts | 241° |
| 2026-05-05 08:00 | 7.13097 | 125.65214 | 104 ft | 6 kts | 239° |
| 2026-05-05 08:00 | 7.13068 | 125.65177 | 104 ft | 7 kts | 229° |
| 2026-05-05 08:00 | 7.13035 | 125.65138 | 104 ft | 7 kts | 229° |
| 2026-05-05 08:01 | 7.12999 | 125.65096 | 104 ft | 8 kts | 229° |
| 2026-05-05 08:01 | 7.12953 | 125.65042 | 104 ft | 11 kts | 229° |
| 2026-05-05 08:01 | 7.12901 | 125.64983 | 104 ft | 7 kts | 229° |
| 2026-05-05 08:01 | 7.12883 | 125.64934 | 104 ft | 7 kts | 278° |
| 2026-05-05 08:02 | 7.12915 | 125.64889 | 104 ft | 8 kts | 319° |
| 2026-05-05 08:02 | 7.12960 | 125.64851 | 104 ft | 8 kts | 320° |
| 2026-05-05 08:02 | 7.13007 | 125.64810 | 104 ft | 9 kts | 309° |
| 2026-05-05 08:02 | 7.12999 | 125.64749 | 104 ft | 9 kts | 230° |
| 2026-05-05 08:03 | 7.12956 | 125.64700 | 104 ft | 9 kts | 229° |
| 2026-05-05 08:03 | 7.12912 | 125.64649 | 104 ft | 8 kts | 229° |
| 2026-05-05 08:03 | 7.12899 | 125.64602 | 104 ft | 6 kts | 288° |
| 2026-05-05 08:03 | 7.12924 | 125.64571 | 104 ft | 5 kts | 319° |
| 2026-05-05 08:04 | 7.12947 | 125.64551 | 104 ft | 0 kts | 319° |
| 2026-05-05 08:04 | 7.12949 | 125.64549 | 104 ft | 0 kts | 319° |